sensor_id;sensor_type;location;lat;lon;timestamp;temperature;humidity
54788;DHT22;59598;48.112;16.280;2023-12-20T00:02:24;-0.80;1.00
54788;DHT22;59598;48.112;16.280;2023-12-20T00:04:55;-0.70;1.00
54788;DHT22;59598;48.112;16.280;2023-12-20T00:07:26;-0.70;1.00
54788;DHT22;59598;48.112;16.280;2023-12-20T00:09:57;-0.70;1.00
54788;DHT22;59598;48.112;16.280;2023-12-20T00:12:29;-0.80;1.00
54788;DHT22;59598;48.112;16.280;2023-12-20T00:15:00;-0.80;1.00
54788;DHT22;59598;48.112;16.280;2023-12-20T00:17:36;-1.00;1.00
54788;DHT22;59598;48.112;16.280;2023-12-20T00:20:10;-1.00;1.00
54788;DHT22;59598;48.112;16.280;2023-12-20T00:22:41;-1.10;1.00
54788;DHT22;59598;48.112;16.280;2023-12-20T00:25:17;-1.00;1.00
54788;DHT22;59598;48.112;16.280;2023-12-20T00:27:51;-1.00;1.00
54788;DHT22;59598;48.112;16.280;2023-12-20T00:30:27;-1.00;1.00
54788;DHT22;59598;48.112;16.280;2023-12-20T00:32:59;-0.90;1.00
54788;DHT22;59598;48.112;16.280;2023-12-20T00:35:30;-0.90;1.00
54788;DHT22;59598;48.112;16.280;2023-12-20T00:38:01;-0.90;1.00
54788;DHT22;59598;48.112;16.280;2023-12-20T00:40:33;-0.80;1.00
54788;DHT22;59598;48.112;16.280;2023-12-20T00:43:06;-0.90;1.00
54788;DHT22;59598;48.112;16.280;2023-12-20T00:45:37;-1.00;1.00
54788;DHT22;59598;48.112;16.280;2023-12-20T00:48:11;-1.00;1.00
54788;DHT22;59598;48.112;16.280;2023-12-20T00:50:42;-1.00;1.00
54788;DHT22;59598;48.112;16.280;2023-12-20T00:53:16;-1.00;1.00
54788;DHT22;59598;48.112;16.280;2023-12-20T00:55:50;-1.10;1.00
54788;DHT22;59598;48.112;16.280;2023-12-20T00:58:24;-1.10;1.00
54788;DHT22;59598;48.112;16.280;2023-12-20T01:00:56;-1.10;1.00
54788;DHT22;59598;48.112;16.280;2023-12-20T01:03:29;-1.10;1.00
54788;DHT22;59598;48.112;16.280;2023-12-20T01:06:03;-1.10;1.00
54788;DHT22;59598;48.112;16.280;2023-12-20T01:08:38;-1.10;1.00
54788;DHT22;59598;48.112;16.280;2023-12-20T01:11:10;-1.10;1.00
54788;DHT22;59598;48.112;16.280;2023-12-20T01:13:43;-1.10;1.00
54788;DHT22;59598;48.112;16.280;2023-12-20T01:16:14;-1.10;1.00
54788;DHT22;59598;48.112;16.280;2023-12-20T01:18:45;-1.10;1.00
54788;DHT22;59598;48.112;16.280;2023-12-20T01:21:17;-1.10;1.00
54788;DHT22;59598;48.112;16.280;2023-12-20T01:23:53;-1.10;1.00
54788;DHT22;59598;48.112;16.280;2023-12-20T01:26:27;-1.20;1.00
54788;DHT22;59598;48.112;16.280;2023-12-20T01:28:58;-1.10;1.00
54788;DHT22;59598;48.112;16.280;2023-12-20T01:31:29;-1.00;1.00
54788;DHT22;59598;48.112;16.280;2023-12-20T01:34:01;-0.90;1.00
54788;DHT22;59598;48.112;16.280;2023-12-20T01:36:32;-0.70;1.00
54788;DHT22;59598;48.112;16.280;2023-12-20T01:39:06;-0.70;1.00
54788;DHT22;59598;48.112;16.280;2023-12-20T01:41:39;-0.60;1.00
54788;DHT22;59598;48.112;16.280;2023-12-20T01:44:13;-0.70;1.00
54788;DHT22;59598;48.112;16.280;2023-12-20T01:46:45;-0.60;1.00
54788;DHT22;59598;48.112;16.280;2023-12-20T01:49:19;-0.60;1.00
54788;DHT22;59598;48.112;16.280;2023-12-20T01:51:54;-0.80;1.00
54788;DHT22;59598;48.112;16.280;2023-12-20T01:54:26;-0.80;1.00
54788;DHT22;59598;48.112;16.280;2023-12-20T01:56:58;-0.80;1.00
54788;DHT22;59598;48.112;16.280;2023-12-20T01:59:36;-0.90;1.00
54788;DHT22;59598;48.112;16.280;2023-12-20T02:02:10;-0.90;1.00
54788;DHT22;59598;48.112;16.280;2023-12-20T02:04:43;-0.90;1.00
54788;DHT22;59598;48.112;16.280;2023-12-20T02:07:14;-0.90;1.00
54788;DHT22;59598;48.112;16.280;2023-12-20T02:09:46;-1.00;1.00
54788;DHT22;59598;48.112;16.280;2023-12-20T02:12:18;-1.10;1.00
54788;DHT22;59598;48.112;16.280;2023-12-20T02:14:50;-1.30;1.00
54788;DHT22;59598;48.112;16.280;2023-12-20T02:17:27;-1.30;1.00
54788;DHT22;59598;48.112;16.280;2023-12-20T02:20:04;-1.40;1.00
54788;DHT22;59598;48.112;16.280;2023-12-20T02:22:36;-1.50;1.00
54788;DHT22;59598;48.112;16.280;2023-12-20T02:25:10;-1.60;1.00
54788;DHT22;59598;48.112;16.280;2023-12-20T02:27:44;-1.70;1.00
54788;DHT22;59598;48.112;16.280;2023-12-20T02:30:23;-1.70;1.00
54788;DHT22;59598;48.112;16.280;2023-12-20T02:32:54;-1.70;1.00
54788;DHT22;59598;48.112;16.280;2023-12-20T02:35:30;-1.70;1.00
54788;DHT22;59598;48.112;16.280;2023-12-20T02:38:04;-1.70;1.00
54788;DHT22;59598;48.112;16.280;2023-12-20T02:40:35;-1.80;1.00
54788;DHT22;59598;48.112;16.280;2023-12-20T02:43:09;-2.00;1.00
54788;DHT22;59598;48.112;16.280;2023-12-20T02:45:40;-2.00;1.00
54788;DHT22;59598;48.112;16.280;2023-12-20T02:48:14;-2.10;1.00
54788;DHT22;59598;48.112;16.280;2023-12-20T02:50:47;-2.10;1.00
54788;DHT22;59598;48.112;16.280;2023-12-20T02:53:21;-2.10;1.00
54788;DHT22;59598;48.112;16.280;2023-12-20T02:55:55;-2.10;1.00
54788;DHT22;59598;48.112;16.280;2023-12-20T02:58:31;-2.00;1.00
54788;DHT22;59598;48.112;16.280;2023-12-20T03:01:02;-2.00;1.00
54788;DHT22;59598;48.112;16.280;2023-12-20T03:03:34;-2.00;1.00
54788;DHT22;59598;48.112;16.280;2023-12-20T03:06:05;-1.90;1.00
54788;DHT22;59598;48.112;16.280;2023-12-20T03:08:36;-1.90;1.00
54788;DHT22;59598;48.112;16.280;2023-12-20T03:11:11;-1.90;1.00
54788;DHT22;59598;48.112;16.280;2023-12-20T03:13:42;-1.90;1.00
54788;DHT22;59598;48.112;16.280;2023-12-20T03:16:14;-2.00;1.00
54788;DHT22;59598;48.112;16.280;2023-12-20T03:18:47;-2.00;1.00
54788;DHT22;59598;48.112;16.280;2023-12-20T03:21:22;-2.10;1.00
54788;DHT22;59598;48.112;16.280;2023-12-20T03:23:54;-2.10;1.00
54788;DHT22;59598;48.112;16.280;2023-12-20T03:26:27;-2.10;1.00
54788;DHT22;59598;48.112;16.280;2023-12-20T03:29:02;-2.20;1.00
54788;DHT22;59598;48.112;16.280;2023-12-20T03:31:36;-2.20;1.00
54788;DHT22;59598;48.112;16.280;2023-12-20T03:34:07;-2.20;1.00
54788;DHT22;59598;48.112;16.280;2023-12-20T03:36:38;-2.20;1.00
54788;DHT22;59598;48.112;16.280;2023-12-20T03:39:11;-2.30;1.00
54788;DHT22;59598;48.112;16.280;2023-12-20T03:41:42;-2.30;1.00
54788;DHT22;59598;48.112;16.280;2023-12-20T03:44:13;-1.80;1.00
54788;DHT22;59598;48.112;16.280;2023-12-20T03:46:47;-1.80;1.00
54788;DHT22;59598;48.112;16.280;2023-12-20T03:49:20;-1.80;1.00
54788;DHT22;59598;48.112;16.280;2023-12-20T03:51:59;-1.80;1.00
54788;DHT22;59598;48.112;16.280;2023-12-20T03:54:30;-2.10;1.00
54788;DHT22;59598;48.112;16.280;2023-12-20T03:57:04;-2.20;1.00
54788;DHT22;59598;48.112;16.280;2023-12-20T03:59:39;-2.30;1.00
54788;DHT22;59598;48.112;16.280;2023-12-20T04:02:12;-2.40;1.00
54788;DHT22;59598;48.112;16.280;2023-12-20T04:04:48;-2.40;1.00
54788;DHT22;59598;48.112;16.280;2023-12-20T04:07:20;-2.40;1.00
54788;DHT22;59598;48.112;16.280;2023-12-20T04:09:55;-2.30;1.00
54788;DHT22;59598;48.112;16.280;2023-12-20T04:12:30;-2.30;1.00
54788;DHT22;59598;48.112;16.280;2023-12-20T04:15:04;-2.20;1.00
54788;DHT22;59598;48.112;16.280;2023-12-20T04:17:40;-2.20;1.00
54788;DHT22;59598;48.112;16.280;2023-12-20T04:20:13;-2.20;1.00
54788;DHT22;59598;48.112;16.280;2023-12-20T04:22:49;-2.10;1.00
54788;DHT22;59598;48.112;16.280;2023-12-20T04:25:25;-2.10;1.00
54788;DHT22;59598;48.112;16.280;2023-12-20T04:27:59;-2.10;1.00
54788;DHT22;59598;48.112;16.280;2023-12-20T04:30:32;-2.00;1.00
54788;DHT22;59598;48.112;16.280;2023-12-20T04:33:04;-2.00;1.00
54788;DHT22;59598;48.112;16.280;2023-12-20T04:35:41;-1.90;1.00
54788;DHT22;59598;48.112;16.280;2023-12-20T04:38:13;-1.80;1.00
54788;DHT22;59598;48.112;16.280;2023-12-20T04:40:50;-1.80;1.00
54788;DHT22;59598;48.112;16.280;2023-12-20T04:43:21;-1.70;1.00
54788;DHT22;59598;48.112;16.280;2023-12-20T04:45:55;-1.70;1.00
54788;DHT22;59598;48.112;16.280;2023-12-20T04:48:32;-1.60;1.00
54788;DHT22;59598;48.112;16.280;2023-12-20T04:51:11;-1.60;1.00
54788;DHT22;59598;48.112;16.280;2023-12-20T04:53:43;-1.60;1.00
54788;DHT22;59598;48.112;16.280;2023-12-20T04:56:17;-1.40;1.00
54788;DHT22;59598;48.112;16.280;2023-12-20T04:58:49;-1.40;1.00
54788;DHT22;59598;48.112;16.280;2023-12-20T05:01:20;-1.40;1.00
54788;DHT22;59598;48.112;16.280;2023-12-20T05:03:54;-1.30;1.00
54788;DHT22;59598;48.112;16.280;2023-12-20T05:06:28;-1.30;1.00
54788;DHT22;59598;48.112;16.280;2023-12-20T05:09:05;-1.40;1.00
54788;DHT22;59598;48.112;16.280;2023-12-20T05:11:36;-1.40;1.00
54788;DHT22;59598;48.112;16.280;2023-12-20T05:14:07;-1.50;1.00
54788;DHT22;59598;48.112;16.280;2023-12-20T05:16:42;-1.40;1.00
54788;DHT22;59598;48.112;16.280;2023-12-20T05:19:15;-1.30;1.00
54788;DHT22;59598;48.112;16.280;2023-12-20T05:21:48;-1.20;1.00
54788;DHT22;59598;48.112;16.280;2023-12-20T05:24:23;-1.10;1.00
54788;DHT22;59598;48.112;16.280;2023-12-20T05:27:04;-1.10;1.00
54788;DHT22;59598;48.112;16.280;2023-12-20T05:29:38;-1.10;1.00
54788;DHT22;59598;48.112;16.280;2023-12-20T05:32:12;-0.80;1.00
54788;DHT22;59598;48.112;16.280;2023-12-20T05:34:48;-0.60;1.00
54788;DHT22;59598;48.112;16.280;2023-12-20T05:37:26;0.60;1.00
54788;DHT22;59598;48.112;16.280;2023-12-20T05:39:57;3.50;1.00
54788;DHT22;59598;48.112;16.280;2023-12-20T05:42:29;4.90;1.00
54788;DHT22;59598;48.112;16.280;2023-12-20T05:45:07;5.80;1.00
54788;DHT22;59598;48.112;16.280;2023-12-20T05:47:40;6.10;1.00
54788;DHT22;59598;48.112;16.280;2023-12-20T05:50:20;6.50;99.90
54788;DHT22;59598;48.112;16.280;2023-12-20T05:52:54;6.40;99.90
54788;DHT22;59598;48.112;16.280;2023-12-20T05:55:26;6.60;99.90
54788;DHT22;59598;48.112;16.280;2023-12-20T05:58:00;6.90;1.00
54788;DHT22;59598;48.112;16.280;2023-12-20T06:00:33;7.10;1.00
54788;DHT22;59598;48.112;16.280;2023-12-20T06:03:07;7.30;1.00
54788;DHT22;59598;48.112;16.280;2023-12-20T06:05:42;7.30;1.00
54788;DHT22;59598;48.112;16.280;2023-12-20T06:08:16;7.30;1.00
54788;DHT22;59598;48.112;16.280;2023-12-20T06:10:51;7.20;1.00
54788;DHT22;59598;48.112;16.280;2023-12-20T06:13:22;7.10;1.00
54788;DHT22;59598;48.112;16.280;2023-12-20T06:15:59;7.30;1.00
54788;DHT22;59598;48.112;16.280;2023-12-20T06:18:33;7.50;1.00
54788;DHT22;59598;48.112;16.280;2023-12-20T06:21:08;7.60;99.90
54788;DHT22;59598;48.112;16.280;2023-12-20T06:23:39;7.70;99.90
54788;DHT22;59598;48.112;16.280;2023-12-20T06:26:15;7.80;99.90
54788;DHT22;59598;48.112;16.280;2023-12-20T06:28:46;7.80;99.90
54788;DHT22;59598;48.112;16.280;2023-12-20T06:31:18;7.70;1.00
54788;DHT22;59598;48.112;16.280;2023-12-20T06:33:53;7.80;1.00
54788;DHT22;59598;48.112;16.280;2023-12-20T06:39:49;7.60;1.00
54788;DHT22;59598;48.112;16.280;2023-12-20T06:42:20;7.70;1.00
54788;DHT22;59598;48.112;16.280;2023-12-20T06:44:56;7.80;1.00
54788;DHT22;59598;48.112;16.280;2023-12-20T06:47:27;7.80;1.00
54788;DHT22;59598;48.112;16.280;2023-12-20T06:50:01;7.90;1.00
54788;DHT22;59598;48.112;16.280;2023-12-20T06:52:32;7.90;1.00
54788;DHT22;59598;48.112;16.280;2023-12-20T06:55:06;8.00;1.00
54788;DHT22;59598;48.112;16.280;2023-12-20T06:57:37;7.80;1.00
54788;DHT22;59598;48.112;16.280;2023-12-20T07:00:09;7.90;1.00
54788;DHT22;59598;48.112;16.280;2023-12-20T07:02:44;7.90;1.00
54788;DHT22;59598;48.112;16.280;2023-12-20T07:11:53;8.10;1.00
54788;DHT22;59598;48.112;16.280;2023-12-20T07:14:27;8.10;1.00
54788;DHT22;59598;48.112;16.280;2023-12-20T07:17:03;8.00;1.00
54788;DHT22;59598;48.112;16.280;2023-12-20T07:19:34;8.10;1.00
54788;DHT22;59598;48.112;16.280;2023-12-20T07:22:08;8.20;1.00
54788;DHT22;59598;48.112;16.280;2023-12-20T07:24:39;8.30;1.00
54788;DHT22;59598;48.112;16.280;2023-12-20T07:27:13;8.20;1.00
54788;DHT22;59598;48.112;16.280;2023-12-20T07:29:46;8.20;1.00
54788;DHT22;59598;48.112;16.280;2023-12-20T07:32:20;8.20;1.00
54788;DHT22;59598;48.112;16.280;2023-12-20T07:34:57;8.30;1.00
54788;DHT22;59598;48.112;16.280;2023-12-20T07:37:28;8.30;1.00
54788;DHT22;59598;48.112;16.280;2023-12-20T07:40:01;8.30;1.00
54788;DHT22;59598;48.112;16.280;2023-12-20T07:42:34;8.20;1.00
54788;DHT22;59598;48.112;16.280;2023-12-20T07:45:07;8.30;1.00
54788;DHT22;59598;48.112;16.280;2023-12-20T07:47:45;8.30;1.00
54788;DHT22;59598;48.112;16.280;2023-12-20T07:50:16;8.30;1.00
54788;DHT22;59598;48.112;16.280;2023-12-20T07:52:47;8.30;1.00
54788;DHT22;59598;48.112;16.280;2023-12-20T07:55:19;8.30;1.00
54788;DHT22;59598;48.112;16.280;2023-12-20T07:57:50;8.20;1.00
54788;DHT22;59598;48.112;16.280;2023-12-20T08:00:24;8.20;1.00
54788;DHT22;59598;48.112;16.280;2023-12-20T08:02:55;8.20;1.00
54788;DHT22;59598;48.112;16.280;2023-12-20T08:05:27;8.10;1.00
54788;DHT22;59598;48.112;16.280;2023-12-20T08:07:58;8.00;1.00
54788;DHT22;59598;48.112;16.280;2023-12-20T08:10:30;8.00;1.00
54788;DHT22;59598;48.112;16.280;2023-12-20T08:13:03;7.90;1.00
54788;DHT22;59598;48.112;16.280;2023-12-20T08:15:34;7.90;1.00
54788;DHT22;59598;48.112;16.280;2023-12-20T08:18:06;7.90;1.00
54788;DHT22;59598;48.112;16.280;2023-12-20T08:20:42;7.80;1.00
54788;DHT22;59598;48.112;16.280;2023-12-20T08:23:16;7.90;1.00
54788;DHT22;59598;48.112;16.280;2023-12-20T08:25:49;7.90;1.00
54788;DHT22;59598;48.112;16.280;2023-12-20T08:28:20;7.90;1.00
54788;DHT22;59598;48.112;16.280;2023-12-20T08:30:54;7.90;1.00
54788;DHT22;59598;48.112;16.280;2023-12-20T08:33:28;7.90;1.00
54788;DHT22;59598;48.112;16.280;2023-12-20T08:35:59;7.90;1.00
54788;DHT22;59598;48.112;16.280;2023-12-20T08:38:33;7.90;1.00
54788;DHT22;59598;48.112;16.280;2023-12-20T08:41:05;7.90;1.00
54788;DHT22;59598;48.112;16.280;2023-12-20T08:43:36;7.80;1.00
54788;DHT22;59598;48.112;16.280;2023-12-20T08:46:11;7.90;1.00
54788;DHT22;59598;48.112;16.280;2023-12-20T08:48:45;7.90;1.00
54788;DHT22;59598;48.112;16.280;2023-12-20T08:51:16;7.90;1.00
54788;DHT22;59598;48.112;16.280;2023-12-20T08:53:47;7.90;1.00
54788;DHT22;59598;48.112;16.280;2023-12-20T08:56:20;7.90;1.00
54788;DHT22;59598;48.112;16.280;2023-12-20T08:58:52;7.90;1.00
54788;DHT22;59598;48.112;16.280;2023-12-20T09:01:28;7.90;1.00
54788;DHT22;59598;48.112;16.280;2023-12-20T09:04:03;7.90;1.00
54788;DHT22;59598;48.112;16.280;2023-12-20T09:06:34;7.90;1.00
54788;DHT22;59598;48.112;16.280;2023-12-20T09:09:05;7.90;1.00
54788;DHT22;59598;48.112;16.280;2023-12-20T09:11:39;7.90;11.80
54788;DHT22;59598;48.112;16.280;2023-12-20T09:14:10;7.80;1.00
54788;DHT22;59598;48.112;16.280;2023-12-20T09:16:41;7.80;22.50
54788;DHT22;59598;48.112;16.280;2023-12-20T09:19:16;7.80;42.80
54788;DHT22;59598;48.112;16.280;2023-12-20T09:21:47;7.80;56.00
54788;DHT22;59598;48.112;16.280;2023-12-20T09:24:19;7.80;96.70
54788;DHT22;59598;48.112;16.280;2023-12-20T09:26:55;7.80;99.90
54788;DHT22;59598;48.112;16.280;2023-12-20T09:29:26;7.80;99.90
54788;DHT22;59598;48.112;16.280;2023-12-20T09:31:58;7.80;99.90
54788;DHT22;59598;48.112;16.280;2023-12-20T09:34:29;7.80;99.90
54788;DHT22;59598;48.112;16.280;2023-12-20T09:37:03;7.70;99.90
54788;DHT22;59598;48.112;16.280;2023-12-20T09:39:35;7.70;99.90
54788;DHT22;59598;48.112;16.280;2023-12-20T09:42:11;7.70;99.90
54788;DHT22;59598;48.112;16.280;2023-12-20T09:44:46;7.70;99.90
54788;DHT22;59598;48.112;16.280;2023-12-20T09:47:23;7.70;99.90
54788;DHT22;59598;48.112;16.280;2023-12-20T09:49:58;7.60;99.90
54788;DHT22;59598;48.112;16.280;2023-12-20T09:52:29;7.50;99.90
54788;DHT22;59598;48.112;16.280;2023-12-20T09:55:04;7.50;99.90
54788;DHT22;59598;48.112;16.280;2023-12-20T09:57:37;7.30;99.90
54788;DHT22;59598;48.112;16.280;2023-12-20T10:00:09;7.10;99.90
54788;DHT22;59598;48.112;16.280;2023-12-20T10:02:48;7.00;99.90
54788;DHT22;59598;48.112;16.280;2023-12-20T10:05:29;6.90;1.00
54788;DHT22;59598;48.112;16.280;2023-12-20T10:08:01;6.70;1.00
54788;DHT22;59598;48.112;16.280;2023-12-20T10:10:35;6.50;1.00
54788;DHT22;59598;48.112;16.280;2023-12-20T10:13:12;6.40;99.90
54788;DHT22;59598;48.112;16.280;2023-12-20T10:15:46;6.40;99.90
54788;DHT22;59598;48.112;16.280;2023-12-20T10:18:17;6.30;99.90
54788;DHT22;59598;48.112;16.280;2023-12-20T10:20:51;6.30;1.00
54788;DHT22;59598;48.112;16.280;2023-12-20T10:23:22;6.30;1.00
54788;DHT22;59598;48.112;16.280;2023-12-20T10:25:59;6.40;99.90
54788;DHT22;59598;48.112;16.280;2023-12-20T10:28:33;6.40;99.90
54788;DHT22;59598;48.112;16.280;2023-12-20T10:31:07;6.40;99.90
54788;DHT22;59598;48.112;16.280;2023-12-20T10:33:40;6.50;99.90
54788;DHT22;59598;48.112;16.280;2023-12-20T10:36:17;6.50;1.00
54788;DHT22;59598;48.112;16.280;2023-12-20T10:38:50;6.60;1.00
54788;DHT22;59598;48.112;16.280;2023-12-20T10:41:28;6.60;1.00
54788;DHT22;59598;48.112;16.280;2023-12-20T10:44:08;6.80;1.00
54788;DHT22;59598;48.112;16.280;2023-12-20T10:46:41;6.90;1.00
54788;DHT22;59598;48.112;16.280;2023-12-20T10:49:18;6.90;99.90
54788;DHT22;59598;48.112;16.280;2023-12-20T10:51:52;7.00;99.90
54788;DHT22;59598;48.112;16.280;2023-12-20T10:54:27;7.10;99.90
54788;DHT22;59598;48.112;16.280;2023-12-20T10:57:00;7.10;99.90
54788;DHT22;59598;48.112;16.280;2023-12-20T10:59:33;7.20;99.90
54788;DHT22;59598;48.112;16.280;2023-12-20T11:02:08;7.20;99.90
54788;DHT22;59598;48.112;16.280;2023-12-20T11:04:50;7.20;99.90
54788;DHT22;59598;48.112;16.280;2023-12-20T11:07:55;7.30;99.90
54788;DHT22;59598;48.112;16.280;2023-12-20T11:10:48;7.30;99.90
54788;DHT22;59598;48.112;16.280;2023-12-20T11:14:31;7.40;99.90
54788;DHT22;59598;48.112;16.280;2023-12-20T11:16:37;7.40;95.50
54788;DHT22;59598;48.112;16.280;2023-12-20T11:19:11;7.40;73.10
54788;DHT22;59598;48.112;16.280;2023-12-20T11:21:49;7.40;51.90
54788;DHT22;59598;48.112;16.280;2023-12-20T11:24:26;7.50;40.30
54788;DHT22;59598;48.112;16.280;2023-12-20T11:26:59;7.40;52.50
54788;DHT22;59598;48.112;16.280;2023-12-20T11:29:39;7.40;26.60
54788;DHT22;59598;48.112;16.280;2023-12-20T11:32:28;7.40;23.00
54788;DHT22;59598;48.112;16.280;2023-12-20T11:37:40;7.50;27.50
54788;DHT22;59598;48.112;16.280;2023-12-20T11:40:18;7.50;20.40
54788;DHT22;59598;48.112;16.280;2023-12-20T11:42:50;7.50;1.00
54788;DHT22;59598;48.112;16.280;2023-12-20T11:45:24;7.50;1.00
54788;DHT22;59598;48.112;16.280;2023-12-20T11:47:56;7.60;1.00
54788;DHT22;59598;48.112;16.280;2023-12-20T11:50:30;7.60;1.00
54788;DHT22;59598;48.112;16.280;2023-12-20T11:53:01;7.60;1.00
54788;DHT22;59598;48.112;16.280;2023-12-20T11:55:37;7.70;1.00
54788;DHT22;59598;48.112;16.280;2023-12-20T11:58:11;7.70;1.00
54788;DHT22;59598;48.112;16.280;2023-12-20T12:00:43;7.80;1.00
54788;DHT22;59598;48.112;16.280;2023-12-20T12:03:15;7.80;1.00
54788;DHT22;59598;48.112;16.280;2023-12-20T12:05:50;7.80;1.00
54788;DHT22;59598;48.112;16.280;2023-12-20T12:08:23;7.90;1.00
54788;DHT22;59598;48.112;16.280;2023-12-20T12:10:54;8.00;1.00
54788;DHT22;59598;48.112;16.280;2023-12-20T12:13:26;8.10;1.00
54788;DHT22;59598;48.112;16.280;2023-12-20T12:15:59;8.30;1.00
54788;DHT22;59598;48.112;16.280;2023-12-20T12:18:30;8.50;1.00
54788;DHT22;59598;48.112;16.280;2023-12-20T12:21:04;8.50;1.00
54788;DHT22;59598;48.112;16.280;2023-12-20T12:23:38;8.30;1.00
54788;DHT22;59598;48.112;16.280;2023-12-20T12:26:09;8.40;1.00
54788;DHT22;59598;48.112;16.280;2023-12-20T12:28:42;8.30;1.00
54788;DHT22;59598;48.112;16.280;2023-12-20T12:31:15;8.20;1.00
54788;DHT22;59598;48.112;16.280;2023-12-20T12:33:49;8.40;1.00
54788;DHT22;59598;48.112;16.280;2023-12-20T12:36:20;8.40;1.00
54788;DHT22;59598;48.112;16.280;2023-12-20T12:38:57;8.40;1.00
54788;DHT22;59598;48.112;16.280;2023-12-20T12:41:32;8.20;1.00
54788;DHT22;59598;48.112;16.280;2023-12-20T12:44:03;8.10;1.00
54788;DHT22;59598;48.112;16.280;2023-12-20T12:46:39;8.00;1.00
54788;DHT22;59598;48.112;16.280;2023-12-20T12:49:17;7.90;1.00
54788;DHT22;59598;48.112;16.280;2023-12-20T12:51:49;7.90;1.00
54788;DHT22;59598;48.112;16.280;2023-12-20T12:54:20;7.70;1.00
54788;DHT22;59598;48.112;16.280;2023-12-20T12:56:52;7.70;1.00
54788;DHT22;59598;48.112;16.280;2023-12-20T12:59:24;7.70;1.00
54788;DHT22;59598;48.112;16.280;2023-12-20T13:01:57;7.60;1.00
54788;DHT22;59598;48.112;16.280;2023-12-20T13:04:29;7.60;1.00
54788;DHT22;59598;48.112;16.280;2023-12-20T13:07:00;7.60;1.00
54788;DHT22;59598;48.112;16.280;2023-12-20T13:09:32;7.60;1.00
54788;DHT22;59598;48.112;16.280;2023-12-20T13:12:07;7.60;1.00
54788;DHT22;59598;48.112;16.280;2023-12-20T13:14:38;7.50;1.00
54788;DHT22;59598;48.112;16.280;2023-12-20T13:17:10;7.50;1.00
54788;DHT22;59598;48.112;16.280;2023-12-20T13:19:43;7.50;1.00
54788;DHT22;59598;48.112;16.280;2023-12-20T13:22:17;7.50;1.00
54788;DHT22;59598;48.112;16.280;2023-12-20T13:24:51;7.40;1.00
54788;DHT22;59598;48.112;16.280;2023-12-20T13:27:24;7.40;1.00
54788;DHT22;59598;48.112;16.280;2023-12-20T13:29:58;7.40;1.00
54788;DHT22;59598;48.112;16.280;2023-12-20T13:32:30;7.30;1.00
54788;DHT22;59598;48.112;16.280;2023-12-20T13:35:01;7.30;1.00
54788;DHT22;59598;48.112;16.280;2023-12-20T13:37:35;7.40;1.00
54788;DHT22;59598;48.112;16.280;2023-12-20T13:40:06;7.40;1.00
54788;DHT22;59598;48.112;16.280;2023-12-20T13:42:41;7.30;1.00
54788;DHT22;59598;48.112;16.280;2023-12-20T13:45:15;7.30;1.00
54788;DHT22;59598;48.112;16.280;2023-12-20T13:47:47;7.30;1.00
54788;DHT22;59598;48.112;16.280;2023-12-20T13:50:18;7.40;1.00
54788;DHT22;59598;48.112;16.280;2023-12-20T13:52:52;7.40;1.00
54788;DHT22;59598;48.112;16.280;2023-12-20T13:55:26;7.50;1.00
54788;DHT22;59598;48.112;16.280;2023-12-20T13:57:58;7.50;1.00
54788;DHT22;59598;48.112;16.280;2023-12-20T14:00:31;7.50;1.00
54788;DHT22;59598;48.112;16.280;2023-12-20T14:03:06;7.40;1.00
54788;DHT22;59598;48.112;16.280;2023-12-20T14:05:40;7.30;1.00
54788;DHT22;59598;48.112;16.280;2023-12-20T14:08:14;7.30;1.00
54788;DHT22;59598;48.112;16.280;2023-12-20T14:10:59;7.30;1.00
54788;DHT22;59598;48.112;16.280;2023-12-20T14:13:32;7.20;1.00
54788;DHT22;59598;48.112;16.280;2023-12-20T14:16:08;7.00;1.00
54788;DHT22;59598;48.112;16.280;2023-12-20T14:18:39;7.00;1.00
54788;DHT22;59598;48.112;16.280;2023-12-20T14:21:12;7.10;1.00
54788;DHT22;59598;48.112;16.280;2023-12-20T14:23:46;7.20;1.00
54788;DHT22;59598;48.112;16.280;2023-12-20T14:26:18;7.20;1.00
54788;DHT22;59598;48.112;16.280;2023-12-20T14:28:54;7.20;1.00
54788;DHT22;59598;48.112;16.280;2023-12-20T14:31:26;7.10;1.00
54788;DHT22;59598;48.112;16.280;2023-12-20T14:34:04;7.10;1.00
54788;DHT22;59598;48.112;16.280;2023-12-20T14:36:38;7.20;1.00
54788;DHT22;59598;48.112;16.280;2023-12-20T14:39:09;7.10;1.00
54788;DHT22;59598;48.112;16.280;2023-12-20T14:41:43;7.20;1.00
54788;DHT22;59598;48.112;16.280;2023-12-20T14:44:15;7.20;1.00
54788;DHT22;59598;48.112;16.280;2023-12-20T14:46:48;7.20;1.00
54788;DHT22;59598;48.112;16.280;2023-12-20T14:49:19;7.20;1.00
54788;DHT22;59598;48.112;16.280;2023-12-20T14:51:50;7.20;1.00
54788;DHT22;59598;48.112;16.280;2023-12-20T14:54:23;7.20;1.00
54788;DHT22;59598;48.112;16.280;2023-12-20T14:56:54;7.20;1.00
54788;DHT22;59598;48.112;16.280;2023-12-20T14:59:26;7.20;1.00
54788;DHT22;59598;48.112;16.280;2023-12-20T15:02:00;7.20;1.00
54788;DHT22;59598;48.112;16.280;2023-12-20T15:04:35;7.20;1.00
54788;DHT22;59598;48.112;16.280;2023-12-20T15:07:09;7.20;1.00
54788;DHT22;59598;48.112;16.280;2023-12-20T15:09:43;7.20;1.00
54788;DHT22;59598;48.112;16.280;2023-12-20T15:12:17;7.30;1.00
54788;DHT22;59598;48.112;16.280;2023-12-20T15:14:48;7.30;1.00
54788;DHT22;59598;48.112;16.280;2023-12-20T15:17:20;7.30;1.00
54788;DHT22;59598;48.112;16.280;2023-12-20T15:19:51;7.30;1.00
54788;DHT22;59598;48.112;16.280;2023-12-20T15:22:25;7.20;1.00
54788;DHT22;59598;48.112;16.280;2023-12-20T15:24:58;7.10;1.00
54788;DHT22;59598;48.112;16.280;2023-12-20T15:27:29;7.00;1.00
54788;DHT22;59598;48.112;16.280;2023-12-20T15:30:00;7.00;1.00
54788;DHT22;59598;48.112;16.280;2023-12-20T15:32:32;6.90;1.00
54788;DHT22;59598;48.112;16.280;2023-12-20T15:35:04;6.90;1.00
54788;DHT22;59598;48.112;16.280;2023-12-20T15:37:38;6.90;1.00
54788;DHT22;59598;48.112;16.280;2023-12-20T15:40:09;6.90;1.00
54788;DHT22;59598;48.112;16.280;2023-12-20T15:42:41;6.90;1.00
54788;DHT22;59598;48.112;16.280;2023-12-20T15:45:12;6.90;1.00
54788;DHT22;59598;48.112;16.280;2023-12-20T15:47:46;6.80;1.00
54788;DHT22;59598;48.112;16.280;2023-12-20T15:50:19;6.80;1.00
54788;DHT22;59598;48.112;16.280;2023-12-20T15:52:50;6.80;1.00
54788;DHT22;59598;48.112;16.280;2023-12-20T15:55:33;6.80;1.00
54788;DHT22;59598;48.112;16.280;2023-12-20T15:58:04;6.80;1.00
54788;DHT22;59598;48.112;16.280;2023-12-20T16:00:38;6.70;1.00
54788;DHT22;59598;48.112;16.280;2023-12-20T16:03:14;6.80;1.00
54788;DHT22;59598;48.112;16.280;2023-12-20T16:05:46;6.80;1.00
54788;DHT22;59598;48.112;16.280;2023-12-20T16:08:25;6.90;1.00
54788;DHT22;59598;48.112;16.280;2023-12-20T16:10:58;7.00;5.20
54788;DHT22;59598;48.112;16.280;2023-12-20T16:13:29;7.00;4.70
54788;DHT22;59598;48.112;16.280;2023-12-20T16:16:06;7.00;1.00
54788;DHT22;59598;48.112;16.280;2023-12-20T16:18:37;7.00;1.00
54788;DHT22;59598;48.112;16.280;2023-12-20T16:21:11;6.90;1.00
54788;DHT22;59598;48.112;16.280;2023-12-20T16:23:42;6.90;1.00
54788;DHT22;59598;48.112;16.280;2023-12-20T16:26:13;6.70;12.00
54788;DHT22;59598;48.112;16.280;2023-12-20T16:28:45;6.60;8.40
54788;DHT22;59598;48.112;16.280;2023-12-20T16:31:16;6.60;16.60